Terminal Aerodrome Forecast
Issued by NWS

Home | Current Version | Previous Version | Graphics & Text | Print | Product List | Glossary On
Versions: 1 2 3 4 5 6 7 8 9 10 11 12 13 14 15 16 17 18 19 20 21 22
000
FTUS42 KMHX 041802 AAA
TAFISO
TAF AMD
KISO 041802Z 0418/0518 32009KT P6SM VCSH SCT030 BKN050
     FM050600 00000KT 4SM BR OVC050
     FM050900 00000KT 2SM BR OVC009
     FM051300 27005KT 4SM BR BKN050
     FM051600 27007KT P6SM BKN050
      AMD LTD TO CLD VIS AND WIND=

USA.gov is the U.S. government's official web portal to all federal, state and local government web resources and services.